Time;durP1;ratioP1;P1;durP2;ratioP2;P2;SDS_P1;SDS_P2;PMS_P1;PMS_P2;Temp;Humidity;BMP_temperature;BMP_pressure;BME280_temperature;BME280_humidity;BME280_pressure;Samples;Min_cycle;Max_cycle;Signal;HPM_P1;HPM_P2
2023/12/08 00:01:10;;;;;;;;;12.00;9.00;;;;;;;;5045318;22;45380;-68
2023/12/08 00:03:36;;;;;;;;;8.75;8.75;;;;;;;;5039988;28;47798;-69
2023/12/08 00:06:02;;;;;;;;;7.33;7.00;;;;;;;;5076341;22;45577;-68
2023/12/08 00:08:27;;;;;;;;;5.50;5.50;;;;;;;;5057303;28;45470;-69
2023/12/08 00:10:53;;;;;;;;;8.33;7.67;;;;;;;;5067445;22;45477;-70
2023/12/08 00:13:18;;;;;;;;;13.00;9.00;;;;;;;;5066372;22;46361;-69
2023/12/08 00:15:43;;;;;;;;;8.67;8.00;;;;;;;;5056404;28;45312;-68
2023/12/08 00:18:08;;;;;;;;;7.33;7.33;;;;;;;;5057555;28;45568;-70
2023/12/08 00:20:33;;;;;;;;;8.00;6.33;;;;;;;;5056820;28;45332;-69
2023/12/08 00:22:58;;;;;;;;;12.33;9.00;;;;;;;;5057252;28;45473;-69
2023/12/08 00:25:23;;;;;;;;;7.67;7.67;;;;;;;;5039510;28;45334;-70
2023/12/08 00:27:49;;;;;;;;;11.33;6.00;;;;;;;;5058428;28;45442;-70
2023/12/08 00:30:14;;;;;;;;;10.25;7.00;;;;;;;;5051935;28;45550;-70
2023/12/08 00:32:39;;;;;;;;;9.00;8.00;;;;;;;;5056738;28;45943;-69
2023/12/08 00:35:05;;;;;;;;;6.33;6.33;;;;;;;;5054859;28;45429;-70
2023/12/08 00:37:30;;;;;;;;;11.50;7.00;;;;;;;;5052423;28;45486;-69
2023/12/08 00:39:55;;;;;;;;;6.00;6.00;;;;;;;;5058852;22;45526;-70
2023/12/08 00:42:21;;;;;;;;;9.00;6.50;;;;;;;;5060964;22;45886;-69
2023/12/08 00:44:46;;;;;;;;;10.50;8.00;;;;;;;;5057800;28;45473;-69
2023/12/08 00:47:14;;;;;;;;;4.00;4.00;;;;;;;;5057710;28;45522;-70
2023/12/08 00:49:39;;;;;;;;;7.25;7.25;;;;;;;;5054516;28;45428;-69
2023/12/08 00:52:04;;;;;;;;;6.75;6.00;;;;;;;;5057348;28;46384;-69
2023/12/08 00:54:30;;;;;;;;;8.50;7.00;;;;;;;;5057432;28;45295;-68
2023/12/08 00:56:55;;;;;;;;;12.00;8.00;;;;;;;;5057689;28;45298;-69
2023/12/08 00:59:20;;;;;;;;;7.00;6.00;;;;;;;;5057747;28;45347;-69
2023/12/08 01:01:45;;;;;;;;;10.00;6.00;;;;;;;;5056180;28;46895;-69
2023/12/08 01:04:10;;;;;;;;;8.00;4.00;;;;;;;;5056856;28;45486;-69
2023/12/08 01:06:36;;;;;;;;;4.00;4.00;;;;;;;;5058039;28;45568;-69
2023/12/08 01:09:01;;;;;;;;;4.00;4.00;;;;;;;;5038936;28;45387;-70
2023/12/08 01:11:26;;;;;;;;;6.50;4.75;;;;;;;;5057194;28;45404;-70
2023/12/08 01:13:51;;;;;;;;;6.33;3.67;;;;;;;;5056656;28;45442;-70
2023/12/08 01:16:16;;;;;;;;;5.67;5.67;;;;;;;;5052967;28;45310;-69
2023/12/08 01:18:41;;;;;;;;;4.67;4.67;;;;;;;;5055465;28;45507;-70
2023/12/08 01:21:07;;;;;;;;;5.33;5.33;;;;;;;;5056771;28;46696;-68
2023/12/08 01:23:32;;;;;;;;;8.00;4.00;;;;;;;;5051849;28;45422;-68
2023/12/08 01:25:57;;;;;;;;;3.67;3.67;;;;;;;;5056893;28;45424;-69
2023/12/08 01:28:23;;;;;;;;;4.00;4.00;;;;;;;;5057059;28;45212;-69
2023/12/08 01:30:48;;;;;;;;;4.00;4.00;;;;;;;;5050276;28;45922;-69
2023/12/08 01:33:13;;;;;;;;;11.67;4.00;;;;;;;;5054137;28;45410;-69
2023/12/08 01:35:38;;;;;;;;;6.00;6.00;;;;;;;;5054423;28;45417;-70
2023/12/08 01:38:03;;;;;;;;;6.50;5.50;;;;;;;;5056735;28;45525;-69
2023/12/08 01:40:29;;;;;;;;;3.33;3.33;;;;;;;;5055391;28;46605;-69
2023/12/08 01:42:54;;;;;;;;;4.00;4.00;;;;;;;;5056336;28;45567;-70
2023/12/08 01:45:19;;;;;;;;;5.75;3.75;;;;;;;;5056443;28;45316;-69
2023/12/08 01:47:46;;;;;;;;;4.25;4.25;;;;;;;;5056114;28;45259;-68
2023/12/08 01:50:12;;;;;;;;;5.33;5.33;;;;;;;;5056423;28;46000;-69
2023/12/08 01:52:37;;;;;;;;;5.25;5.25;;;;;;;;5056096;28;45418;-70
2023/12/08 01:55:03;;;;;;;;;8.00;4.00;;;;;;;;5055721;28;45413;-70
2023/12/08 01:57:28;;;;;;;;;3.00;3.00;;;;;;;;5056420;28;45501;-69
2023/12/08 01:59:54;;;;;;;;;4.00;4.00;;;;;;;;5056512;28;45991;-69
2023/12/08 02:02:19;;;;;;;;;7.00;5.33;;;;;;;;5038149;28;46242;-69
2023/12/08 02:04:47;;;;;;;;;8.00;4.00;;;;;;;;5056202;28;45485;-68
2023/12/08 02:07:13;;;;;;;;;6.33;4.00;;;;;;;;5056281;28;45385;-69
2023/12/08 02:09:38;;;;;;;;;6.00;6.00;;;;;;;;5055617;28;46041;-69
2023/12/08 02:12:04;;;;;;;;;5.33;5.33;;;;;;;;5056173;28;45437;-69
2023/12/08 02:14:30;;;;;;;;;10.00;6.00;;;;;;;;5053454;28;45381;-69
2023/12/08 02:17:09;;;;;;;;;7.00;6.00;;;;;;;;5055776;28;45365;-69
2023/12/08 02:19:35;;;;;;;;;6.00;6.00;;;;;;;;5056435;28;46061;-69
2023/12/08 02:22:00;;;;;;;;;5.33;5.33;;;;;;;;5056086;28;45326;-69
2023/12/08 02:24:25;;;;;;;;;8.00;4.67;;;;;;;;5055683;28;45385;-69
2023/12/08 02:26:51;;;;;;;;;5.50;4.25;;;;;;;;5055863;28;45652;-70
2023/12/08 02:29:16;;;;;;;;;7.75;6.00;;;;;;;;5055099;28;46648;-69
2023/12/08 02:31:48;;;;;;;;;6.00;6.00;;;;;;;;5055115;28;46541;-69
2023/12/08 02:34:15;;;;;;;;;9.67;7.00;;;;;;;;5055784;28;45449;-68
2023/12/08 02:36:41;;;;;;;;;11.33;7.33;;;;;;;;5054541;28;45236;-69
2023/12/08 02:39:07;;;;;;;;;6.50;6.00;;;;;;;;5054936;28;46790;-70
2023/12/08 02:41:32;;;;;;;;;6.67;6.67;;;;;;;;5054836;28;45390;-67
2023/12/08 02:43:58;;;;;;;;;7.67;7.67;;;;;;;;5055218;28;45543;-68
2023/12/08 02:46:23;;;;;;;;;4.00;4.00;;;;;;;;5056697;28;45510;-70
2023/12/08 02:48:48;;;;;;;;;9.33;7.00;;;;;;;;5057938;28;46635;-69
2023/12/08 02:51:13;;;;;;;;;8.67;8.00;;;;;;;;5058955;28;45575;-69
2023/12/08 02:53:38;;;;;;;;;6.00;5.33;;;;;;;;5058669;28;45399;-68
2023/12/08 02:56:04;;;;;;;;;8.67;7.00;;;;;;;;5058443;28;45477;-70
2023/12/08 02:58:29;;;;;;;;;9.25;6.75;;;;;;;;5057834;28;45951;-68
2023/12/08 03:00:54;;;;;;;;;7.25;7.25;;;;;;;;5058919;28;45454;-68
2023/12/08 03:03:19;;;;;;;;;8.33;4.67;;;;;;;;5059234;28;45371;-69
2023/12/08 03:05:45;;;;;;;;;7.00;6.00;;;;;;;;5058958;28;45402;-69
2023/12/08 03:08:10;;;;;;;;;7.50;6.50;;;;;;;;5057944;28;45712;-69
2023/12/08 03:10:35;;;;;;;;;8.00;6.33;;;;;;;;5058629;28;45450;-69
2023/12/08 03:13:01;;;;;;;;;6.67;6.67;;;;;;;;5058798;28;45493;-69
2023/12/08 03:15:26;;;;;;;;;4.00;4.00;;;;;;;;5039775;28;45401;-69
2023/12/08 03:17:51;;;;;;;;;7.00;4.00;;;;;;;;5058556;28;46120;-68
2023/12/08 03:20:16;;;;;;;;;10.33;5.33;;;;;;;;5057905;28;45426;-70
2023/12/08 03:22:41;;;;;;;;;12.33;6.33;;;;;;;;5057397;28;45451;-69
2023/12/08 03:25:07;;;;;;;;;9.67;8.00;;;;;;;;5058790;28;45319;-70
2023/12/08 03:27:32;;;;;;;;;8.00;4.75;;;;;;;;5057839;28;45457;-69
2023/12/08 03:29:57;;;;;;;;;7.00;4.33;;;;;;;;5058667;28;45362;-70
2023/12/08 03:32:22;;;;;;;;;4.67;4.67;;;;;;;;5057306;28;45478;-69
2023/12/08 03:34:47;;;;;;;;;7.67;7.00;;;;;;;;5054273;28;45728;-69
2023/12/08 03:37:13;;;;;;;;;8.00;7.00;;;;;;;;5056858;28;46466;-70
2023/12/08 03:39:38;;;;;;;;;10.67;5.33;;;;;;;;5057796;28;45515;-68
2023/12/08 03:42:03;;;;;;;;;8.25;6.50;;;;;;;;5058564;28;45466;-70
2023/12/08 03:44:28;;;;;;;;;6.00;6.00;;;;;;;;5057818;28;45558;-70
2023/12/08 03:46:53;;;;;;;;;7.00;7.00;;;;;;;;5058660;28;45560;-69
2023/12/08 03:49:18;;;;;;;;;8.67;6.33;;;;;;;;5057500;28;45509;-69
2023/12/08 03:51:44;;;;;;;;;9.00;7.50;;;;;;;;5057952;28;45560;-69
2023/12/08 03:54:15;;;;;;;;;8.67;8.00;;;;;;;;5058553;28;45784;-69
2023/12/08 03:56:40;;;;;;;;;9.00;5.67;;;;;;;;5057495;28;46292;-69
2023/12/08 03:59:05;;;;;;;;;7.67;6.33;;;;;;;;5056321;28;45425;-69
2023/12/08 04:01:30;;;;;;;;;12.00;5.50;;;;;;;;5040027;28;45324;-70
2023/12/08 04:03:56;;;;;;;;;8.33;5.33;;;;;;;;5057111;28;45366;-70
2023/12/08 04:06:21;;;;;;;;;9.00;6.00;;;;;;;;5039087;28;47599;-68
2023/12/08 04:08:46;;;;;;;;;12.00;6.67;;;;;;;;5057605;28;45466;-69
2023/12/08 04:11:11;;;;;;;;;7.75;6.50;;;;;;;;5058533;28;46823;-70
2023/12/08 04:13:38;;;;;;;;;6.00;4.00;;;;;;;;5057499;28;45430;-68
2023/12/08 04:16:03;;;;;;;;;6.33;6.00;;;;;;;;5056789;28;46021;-69
2023/12/08 04:18:28;;;;;;;;;17.25;6.00;;;;;;;;5039073;28;45372;-69
2023/12/08 04:20:54;;;;;;;;;9.33;5.33;;;;;;;;5057875;28;45456;-69
2023/12/08 04:23:19;;;;;;;;;7.33;4.00;;;;;;;;5057348;28;45683;-69
2023/12/08 04:25:44;;;;;;;;;9.67;4.00;;;;;;;;5057213;28;46410;-69
2023/12/08 04:28:09;;;;;;;;;10.33;6.00;;;;;;;;5057413;28;45471;-69
2023/12/08 04:30:34;;;;;;;;;9.67;6.33;;;;;;;;5056920;28;45451;-69
2023/12/08 04:32:59;;;;;;;;;9.00;6.00;;;;;;;;5057814;28;46264;-68
2023/12/08 04:35:25;;;;;;;;;9.33;4.67;;;;;;;;5056216;28;45648;-70
2023/12/08 04:37:53;;;;;;;;;9.00;6.67;;;;;;;;5056888;28;45389;-68
2023/12/08 04:40:18;;;;;;;;;8.00;6.33;;;;;;;;5057260;28;45527;-69
2023/12/08 04:42:44;;;;;;;;;8.33;5.00;;;;;;;;5056377;28;45312;-69
2023/12/08 04:45:09;;;;;;;;;7.00;7.00;;;;;;;;5057027;28;45494;-69
2023/12/08 04:47:35;;;;;;;;;9.50;7.25;;;;;;;;5056303;28;45502;-69
2023/12/08 04:50:00;;;;;;;;;9.75;7.75;;;;;;;;5057729;28;45283;-69
2023/12/08 04:52:25;;;;;;;;;8.00;3.67;;;;;;;;5057640;28;45731;-69
2023/12/08 04:54:50;;;;;;;;;7.00;7.00;;;;;;;;5056632;28;46403;-70
2023/12/08 04:57:16;;;;;;;;;8.67;6.67;;;;;;;;5057671;28;45431;-69
2023/12/08 04:59:41;;;;;;;;;19.50;8.00;;;;;;;;5038952;28;45400;-69
2023/12/08 05:02:06;;;;;;;;;10.67;8.67;;;;;;;;5057440;28;45278;-69
2023/12/08 05:04:31;;;;;;;;;14.75;7.00;;;;;;;;5038532;28;46821;-69
2023/12/08 05:06:56;;;;;;;;;11.33;8.00;;;;;;;;5056221;28;45338;-68
2023/12/08 05:09:22;;;;;;;;;10.67;6.33;;;;;;;;5057423;28;45299;-69
2023/12/08 05:11:47;;;;;;;;;8.33;6.67;;;;;;;;5057212;28;45418;-68
2023/12/08 05:14:12;;;;;;;;;10.67;5.33;;;;;;;;5056515;28;46624;-68
2023/12/08 05:16:37;;;;;;;;;10.33;8.67;;;;;;;;5057054;28;45633;-69
2023/12/08 05:19:03;;;;;;;;;8.67;7.00;;;;;;;;5056692;28;46955;-68
2023/12/08 05:21:28;;;;;;;;;10.00;3.00;;;;;;;;5057122;28;45390;-69
2023/12/08 05:23:53;;;;;;;;;10.67;5.00;;;;;;;;5056773;28;45715;-68
2023/12/08 05:26:18;;;;;;;;;9.33;3.67;;;;;;;;5056933;28;45486;-69
2023/12/08 05:28:43;;;;;;;;;9.67;4.00;;;;;;;;5057154;28;45339;-68
2023/12/08 05:31:09;;;;;;;;;3.67;2.67;;;;;;;;5056357;28;45526;-70
2023/12/08 05:33:34;;;;;;;;;8.67;4.00;;;;;;;;5036004;28;47364;-68
2023/12/08 05:35:59;;;;;;;;;10.33;7.00;;;;;;;;5053591;28;45372;-69
2023/12/08 05:38:24;;;;;;;;;10.33;6.67;;;;;;;;5056694;28;45405;-69
2023/12/08 05:40:49;;;;;;;;;9.33;5.33;;;;;;;;5056775;28;45319;-69
2023/12/08 05:43:15;;;;;;;;;8.67;5.00;;;;;;;;5056208;28;45752;-69
2023/12/08 05:45:40;;;;;;;;;12.50;7.75;;;;;;;;5037673;28;45387;-69
2023/12/08 05:48:05;;;;;;;;;13.67;7.00;;;;;;;;5056098;28;45547;-69
2023/12/08 05:50:30;;;;;;;;;8.67;7.33;;;;;;;;5038515;28;45456;-68
2023/12/08 05:52:56;;;;;;;;;7.00;5.33;;;;;;;;5056062;28;46469;-69
2023/12/08 05:55:21;;;;;;;;;8.00;5.67;;;;;;;;5056743;28;45403;-69
2023/12/08 05:57:47;;;;;;;;;11.67;5.33;;;;;;;;5037884;28;45443;-69
2023/12/08 06:02:46;;;;;;;;;8.33;6.67;;;;;;;;5033611;28;46193;-69
2023/12/08 06:05:13;;;;;;;;;8.67;7.00;;;;;;;;5030929;28;45212;-69
2023/12/08 06:07:38;;;;;;;;;4.00;4.00;;;;;;;;5041536;28;45426;-69
2023/12/08 06:10:03;;;;;;;;;8.33;5.00;;;;;;;;5032495;28;45172;-69
2023/12/08 06:12:29;;;;;;;;;9.50;6.75;;;;;;;;5038790;28;46587;-69
2023/12/08 06:14:54;;;;;;;;;14.00;8.00;;;;;;;;5041907;28;45454;-69
2023/12/08 06:17:20;;;;;;;;;8.33;7.00;;;;;;;;5020223;28;45400;-70
2023/12/08 06:19:45;;;;;;;;;10.67;5.00;;;;;;;;5028981;28;45550;-69
2023/12/08 06:22:10;;;;;;;;;14.67;7.00;;;;;;;;5031669;28;46061;-70
2023/12/08 06:24:35;;;;;;;;;7.33;7.33;;;;;;;;5041025;28;45442;-68
2023/12/08 06:27:00;;;;;;;;;14.33;8.00;;;;;;;;5039797;28;45374;-69
2023/12/08 06:29:25;;;;;;;;;10.00;7.67;;;;;;;;5034851;28;45404;-71
2023/12/08 06:31:51;;;;;;;;;17.00;7.00;;;;;;;;5034523;28;45712;-68
2023/12/08 06:34:16;;;;;;;;;11.50;7.00;;;;;;;;5031141;28;45496;-70
2023/12/08 06:36:45;;;;;;;;;9.50;4.25;;;;;;;;5034846;28;45392;-69
2023/12/08 06:39:12;;;;;;;;;13.67;7.00;;;;;;;;5034856;28;45552;-67
2023/12/08 06:41:37;;;;;;;;;9.33;8.00;;;;;;;;5034951;28;46788;-68
2023/12/08 06:44:02;;;;;;;;;9.33;7.33;;;;;;;;5031854;28;45467;-68
2023/12/08 06:46:27;;;;;;;;;8.00;8.00;;;;;;;;5035095;28;45449;-68
2023/12/08 06:48:53;;;;;;;;;9.67;7.67;;;;;;;;5037204;28;46574;-69
2023/12/08 06:51:18;;;;;;;;;13.25;9.25;;;;;;;;5036746;28;45690;-68
2023/12/08 06:53:43;;;;;;;;;10.00;7.33;;;;;;;;5034274;28;45483;-69
2023/12/08 06:56:08;;;;;;;;;8.67;7.33;;;;;;;;5033495;28;45542;-68
2023/12/08 06:58:33;;;;;;;;;18.00;8.00;;;;;;;;5038466;28;45351;-69
2023/12/08 07:00:59;;;;;;;;;10.00;5.00;;;;;;;;5036938;28;45529;-69
2023/12/08 07:03:24;;;;;;;;;12.25;8.50;;;;;;;;5026919;28;45356;-68
2023/12/08 07:05:49;;;;;;;;;15.50;7.50;;;;;;;;5034988;28;45190;-69
2023/12/08 07:08:14;;;;;;;;;9.00;5.33;;;;;;;;5039455;28;45573;-69
2023/12/08 07:10:40;;;;;;;;;13.67;9.67;;;;;;;;5033526;28;46706;-69
2023/12/08 07:13:05;;;;;;;;;12.25;8.00;;;;;;;;5035915;28;45480;-71
2023/12/08 07:15:30;;;;;;;;;13.33;7.67;;;;;;;;5029653;28;46175;-66
2023/12/08 07:17:55;;;;;;;;;11.67;10.00;;;;;;;;5032269;28;45549;-70
2023/12/08 07:20:21;;;;;;;;;12.33;8.00;;;;;;;;5022914;28;45629;-67
2023/12/08 07:22:47;;;;;;;;;10.00;8.00;;;;;;;;5032185;28;45458;-68
2023/12/08 07:25:15;;;;;;;;;7.00;7.00;;;;;;;;5031097;28;45573;-69
2023/12/08 07:27:40;;;;;;;;;10.50;8.75;;;;;;;;5032091;28;45583;-66
2023/12/08 07:30:06;;;;;;;;;9.67;8.67;;;;;;;;5031210;28;45633;-67
2023/12/08 07:32:31;;;;;;;;;19.25;12.00;;;;;;;;5033194;28;45542;-68
2023/12/08 07:34:56;;;;;;;;;15.00;12.00;;;;;;;;5033150;28;45451;-69
2023/12/08 07:37:22;;;;;;;;;13.50;8.50;;;;;;;;5033197;28;45568;-68
2023/12/08 07:39:47;;;;;;;;;11.33;8.67;;;;;;;;5034830;28;45842;-68
2023/12/08 07:42:12;;;;;;;;;11.33;9.00;;;;;;;;5019714;28;46174;-69
2023/12/08 07:44:37;;;;;;;;;14.67;9.33;;;;;;;;5035883;28;45509;-68
2023/12/08 07:47:02;;;;;;;;;9.75;9.00;;;;;;;;5036171;28;45571;-68
2023/12/08 07:49:28;;;;;;;;;15.00;12.00;;;;;;;;5034876;28;46667;-70
2023/12/08 07:51:53;;;;;;;;;12.00;10.00;;;;;;;;5029197;28;45384;-70
2023/12/08 07:54:18;;;;;;;;;9.75;8.75;;;;;;;;5033266;28;45602;-70
2023/12/08 07:56:43;;;;;;;;;13.25;4.50;;;;;;;;5035185;28;45514;-68
2023/12/08 07:59:08;;;;;;;;;13.75;9.00;;;;;;;;5033002;28;46813;-67
2023/12/08 08:01:35;;;;;;;;;13.67;12.00;;;;;;;;5030300;28;46451;-69
2023/12/08 08:04:00;;;;;;;;;13.25;10.50;;;;;;;;5034992;28;45555;-67
2023/12/08 08:06:25;;;;;;;;;11.33;9.33;;;;;;;;5028688;28;45554;-68
2023/12/08 08:08:50;;;;;;;;;13.67;9.00;;;;;;;;5034659;28;45723;-67
2023/12/08 08:11:16;;;;;;;;;15.50;11.25;;;;;;;;5035368;28;45459;-67
2023/12/08 08:13:41;;;;;;;;;17.33;13.00;;;;;;;;5035629;28;45386;-68
2023/12/08 08:16:06;;;;;;;;;21.00;13.00;;;;;;;;5031310;28;45529;-69
2023/12/08 08:18:31;;;;;;;;;16.33;9.00;;;;;;;;5034642;28;45947;-67
2023/12/08 08:20:56;;;;;;;;;18.75;10.75;;;;;;;;5017391;28;45631;-68
2023/12/08 08:23:22;;;;;;;;;16.50;13.25;;;;;;;;5036386;28;45351;-68
2023/12/08 08:25:47;;;;;;;;;12.00;8.00;;;;;;;;5034746;28;45612;-68
2023/12/08 08:28:12;;;;;;;;;14.00;9.25;;;;;;;;5035409;28;45667;-68
2023/12/08 08:30:38;;;;;;;;;19.00;13.00;;;;;;;;5036158;28;45565;-68
2023/12/08 08:33:03;;;;;;;;;14.00;11.25;;;;;;;;5036649;28;46355;-69
2023/12/08 08:35:28;;;;;;;;;15.67;9.33;;;;;;;;5034007;28;45435;-70
2023/12/08 08:37:53;;;;;;;;;11.00;9.00;;;;;;;;5033900;28;46355;-68
2023/12/08 08:40:19;;;;;;;;;18.75;16.00;;;;;;;;5035299;28;45439;-68
2023/12/08 08:42:45;;;;;;;;;9.50;9.00;;;;;;;;5035727;28;45556;-68
2023/12/08 08:45:10;;;;;;;;;15.00;8.33;;;;;;;;5033709;28;45545;-67
2023/12/08 08:47:35;;;;;;;;;10.33;8.67;;;;;;;;5034766;28;45728;-71
2023/12/08 08:50:00;;;;;;;;;17.75;10.75;;;;;;;;5034084;28;45440;-68
2023/12/08 08:52:26;;;;;;;;;12.67;11.00;;;;;;;;5036084;28;45380;-69
2023/12/08 08:54:51;;;;;;;;;16.50;10.50;;;;;;;;5034037;28;45656;-68
2023/12/08 08:57:16;;;;;;;;;14.00;11.33;;;;;;;;5033296;28;45852;-70
2023/12/08 08:59:41;;;;;;;;;10.67;9.00;;;;;;;;5034976;28;45296;-68
2023/12/08 09:02:07;;;;;;;;;11.00;11.00;;;;;;;;5034747;28;45495;-68
2023/12/08 09:04:33;;;;;;;;;14.67;10.00;;;;;;;;5033690;28;45488;-69
2023/12/08 09:06:58;;;;;;;;;11.33;10.00;;;;;;;;5034691;28;46307;-67
2023/12/08 09:09:23;;;;;;;;;21.00;14.33;;;;;;;;5035708;28;45289;-70
2023/12/08 09:11:48;;;;;;;;;17.00;14.00;;;;;;;;5034320;28;45537;-70
2023/12/08 09:14:14;;;;;;;;;11.00;8.00;;;;;;;;5035193;28;45601;-68
2023/12/08 09:16:39;;;;;;;;;19.67;11.00;;;;;;;;5032307;28;46154;-70
2023/12/08 09:19:05;;;;;;;;;17.00;10.00;;;;;;;;5034396;28;45551;-68
2023/12/08 09:21:31;;;;;;;;;17.67;10.00;;;;;;;;5033373;28;45451;-68
2023/12/08 09:23:56;;;;;;;;;14.67;9.00;;;;;;;;5035185;28;45181;-68
2023/12/08 09:26:21;;;;;;;;;15.33;10.00;;;;;;;;5034346;28;45647;-68
2023/12/08 09:28:46;;;;;;;;;10.00;8.00;;;;;;;;5034689;28;45574;-68
2023/12/08 09:31:12;;;;;;;;;14.33;11.67;;;;;;;;5016412;28;45570;-72
2023/12/08 09:33:37;;;;;;;;;17.00;11.00;;;;;;;;5035525;28;45411;-71
2023/12/08 09:36:02;;;;;;;;;18.33;9.33;;;;;;;;5031971;28;45878;-70
2023/12/08 09:38:27;;;;;;;;;17.00;10.00;;;;;;;;5032772;28;45468;-70
2023/12/08 09:40:53;;;;;;;;;13.33;8.00;;;;;;;;5034892;28;45397;-72
2023/12/08 09:43:21;;;;;;;;;17.00;10.33;;;;;;;;5033460;28;45393;-68
2023/12/08 09:45:47;;;;;;;;;15.00;8.00;;;;;;;;5030808;28;46831;-67
2023/12/08 09:48:12;;;;;;;;;12.00;9.00;;;;;;;;5033204;28;45689;-67
2023/12/08 09:50:38;;;;;;;;;15.00;8.67;;;;;;;;5033494;28;45555;-68
2023/12/08 09:53:04;;;;;;;;;15.67;10.33;;;;;;;;5031192;28;45540;-69
2023/12/08 09:55:30;;;;;;;;;11.33;8.67;;;;;;;;5027988;28;46172;-69
2023/12/08 09:57:55;;;;;;;;;14.00;8.33;;;;;;;;5032643;28;45594;-68
2023/12/08 10:00:22;;;;;;;;;11.33;8.00;;;;;;;;5033019;28;45431;-69
2023/12/08 10:02:49;;;;;;;;;11.00;7.33;;;;;;;;5030927;28;45824;-69
2023/12/08 10:05:14;;;;;;;;;13.33;5.67;;;;;;;;5032982;28;45919;-70
2023/12/08 10:07:40;;;;;;;;;17.00;9.33;;;;;;;;5032177;28;45505;-70
2023/12/08 10:10:08;;;;;;;;;12.67;8.00;;;;;;;;5032865;28;45408;-71
2023/12/08 10:12:33;;;;;;;;;16.67;9.00;;;;;;;;5033149;28;46919;-73
2023/12/08 10:14:58;;;;;;;;;13.67;7.33;;;;;;;;5026476;28;46053;-69
2023/12/08 10:17:24;;;;;;;;;9.67;8.67;;;;;;;;5031260;28;45499;-71
2023/12/08 10:19:52;;;;;;;;;13.00;9.67;;;;;;;;5029156;28;45439;-72
2023/12/08 10:22:17;;;;;;;;;16.67;10.33;;;;;;;;5033933;28;45848;-69
2023/12/08 10:24:42;;;;;;;;;9.33;7.67;;;;;;;;5032302;28;45581;-71
2023/12/08 10:27:08;;;;;;;;;10.00;5.00;;;;;;;;5026164;28;47476;-69
2023/12/08 10:29:34;;;;;;;;;12.00;6.00;;;;;;;;5033756;28;45437;-69
2023/12/08 10:31:59;;;;;;;;;10.00;10.00;;;;;;;;5032462;28;45383;-69
2023/12/08 10:34:25;;;;;;;;;5.33;4.33;;;;;;;;5031127;28;46403;-70
2023/12/08 10:36:51;;;;;;;;;10.67;6.33;;;;;;;;5029821;28;45301;-72
2023/12/08 10:39:17;;;;;;;;;8.00;4.00;;;;;;;;5028201;28;45496;-71
2023/12/08 10:41:43;;;;;;;;;8.33;4.67;;;;;;;;5036799;28;45465;-72
2023/12/08 10:44:08;;;;;;;;;7.67;7.00;;;;;;;;5035814;28;46138;-69
2023/12/08 10:46:34;;;;;;;;;17.00;7.33;;;;;;;;5031527;28;45447;-70
2023/12/08 10:49:01;;;;;;;;;12.00;8.00;;;;;;;;5036944;28;45439;-69
2023/12/08 10:51:26;;;;;;;;;9.33;5.00;;;;;;;;5033765;28;45642;-68
2023/12/08 10:53:51;;;;;;;;;8.00;6.67;;;;;;;;5031005;28;46523;-69
2023/12/08 10:56:17;;;;;;;;;5.67;4.67;;;;;;;;5034020;28;45416;-69
2023/12/08 10:58:44;;;;;;;;;8.33;6.00;;;;;;;;5027746;28;45716;-68
2023/12/08 11:01:12;;;;;;;;;8.00;5.00;;;;;;;;5026987;28;46259;-69
2023/12/08 11:03:39;;;;;;;;;5.00;3.67;;;;;;;;5010106;28;47845;-68
2023/12/08 11:06:06;;;;;;;;;11.67;5.00;;;;;;;;5031872;28;45477;-70
2023/12/08 11:08:33;;;;;;;;;8.33;5.67;;;;;;;;5031658;28;45449;-69
2023/12/08 11:10:59;;;;;;;;;10.00;8.67;;;;;;;;5037472;28;45564;-69
2023/12/08 11:13:26;;;;;;;;;11.33;4.00;;;;;;;;5036977;28;46841;-70
2023/12/08 11:16:11;;;;;;;;;9.33;5.00;;;;;;;;5036895;28;45487;-69
2023/12/08 11:18:37;;;;;;;;;8.67;5.00;;;;;;;;5013018;28;45525;-69
2023/12/08 11:21:06;;;;;;;;;9.00;6.33;;;;;;;;5031055;28;45336;-70
2023/12/08 11:23:32;;;;;;;;;14.33;6.00;;;;;;;;5032180;28;45826;-69
2023/12/08 11:26:16;;;;;;;;;10.00;4.33;;;;;;;;5015844;28;45847;-71
2023/12/08 11:28:42;;;;;;;;;9.00;5.00;;;;;;;;5019178;28;45290;-70
2023/12/08 11:31:25;;;;;;;;;10.00;4.33;;;;;;;;5036177;28;45504;-68
2023/12/08 11:33:57;;;;;;;;;14.33;5.67;;;;;;;;5030016;28;45751;-69
2023/12/08 11:36:22;;;;;;;;;11.33;5.00;;;;;;;;5031463;28;45477;-68
2023/12/08 11:38:47;;;;;;;;;6.00;4.33;;;;;;;;5030368;28;45317;-69
2023/12/08 11:41:13;;;;;;;;;9.00;3.00;;;;;;;;5026212;28;45329;-69
2023/12/08 11:43:44;;;;;;;;;3.00;3.00;;;;;;;;5038495;28;46619;-69
2023/12/08 11:46:10;;;;;;;;;7.67;2.67;;;;;;;;5031058;28;45507;-69
2023/12/08 11:48:36;;;;;;;;;8.33;3.00;;;;;;;;5035624;28;45604;-71
2023/12/08 11:51:03;;;;;;;;;7.33;4.00;;;;;;;;5034061;28;45443;-69
2023/12/08 11:53:31;;;;;;;;;4.00;3.00;;;;;;;;5035779;28;47686;-68
2023/12/08 11:55:56;;;;;;;;;7.00;3.00;;;;;;;;5038029;28;45494;-71
2023/12/08 11:58:32;;;;;;;;;6.00;6.00;;;;;;;;5031074;28;45482;-68
2023/12/08 12:00:59;;;;;;;;;4.67;2.00;;;;;;;;5026237;28;45529;-69
2023/12/08 12:03:26;;;;;;;;;6.33;4.00;;;;;;;;5035179;28;46575;-70
2023/12/08 12:05:52;;;;;;;;;7.67;4.33;;;;;;;;5013727;28;45506;-70
2023/12/08 12:08:18;;;;;;;;;6.67;4.67;;;;;;;;5034137;28;45479;-71
2023/12/08 12:10:45;;;;;;;;;11.67;5.00;;;;;;;;5035908;28;45490;-70
2023/12/08 12:13:14;;;;;;;;;7.33;3.00;;;;;;;;5032957;28;45562;-68
2023/12/08 12:15:40;;;;;;;;;8.33;4.00;;;;;;;;5035222;28;45519;-70
2023/12/08 12:18:06;;;;;;;;;5.00;4.00;;;;;;;;5034793;28;45403;-68
2023/12/08 12:20:34;;;;;;;;;8.00;4.00;;;;;;;;5032886;28;45332;-68
2023/12/08 12:22:59;;;;;;;;;5.00;4.00;;;;;;;;5035365;28;46719;-70
2023/12/08 12:25:25;;;;;;;;;12.67;4.00;;;;;;;;5031332;28;45296;-68
2023/12/08 12:27:52;;;;;;;;;6.00;3.00;;;;;;;;5027088;28;45816;-68
2023/12/08 12:30:17;;;;;;;;;12.00;4.67;;;;;;;;5034369;28;45686;-68
2023/12/08 12:32:44;;;;;;;;;6.33;4.00;;;;;;;;5036339;28;45518;-69
2023/12/08 12:35:10;;;;;;;;;9.00;5.00;;;;;;;;5032248;28;45593;-71
2023/12/08 12:37:35;;;;;;;;;6.33;5.00;;;;;;;;5032381;28;45549;-69
2023/12/08 12:40:01;;;;;;;;;8.33;3.00;;;;;;;;5034919;28;45471;-69
2023/12/08 12:42:26;;;;;;;;;4.33;3.00;;;;;;;;5028483;28;46844;-69
2023/12/08 12:44:52;;;;;;;;;3.00;3.00;;;;;;;;5032836;28;45320;-69
2023/12/08 12:47:21;;;;;;;;;7.33;2.00;;;;;;;;5031836;28;45342;-68
2023/12/08 12:50:04;;;;;;;;;5.33;3.00;;;;;;;;5031763;28;45646;-70
2023/12/08 12:52:30;;;;;;;;;9.00;5.00;;;;;;;;5027936;28;45928;-68
2023/12/08 12:54:55;;;;;;;;;5.67;3.00;;;;;;;;5026456;28;45531;-69
2023/12/08 12:57:21;;;;;;;;;5.00;2.00;;;;;;;;5034506;28;45380;-69
2023/12/08 12:59:53;;;;;;;;;8.00;3.33;;;;;;;;5033167;28;45542;-70
2023/12/08 13:02:28;;;;;;;;;11.67;4.00;;;;;;;;5032753;28;46898;-69
2023/12/08 13:04:53;;;;;;;;;5.00;2.00;;;;;;;;5032860;28;45742;-69
2023/12/08 13:07:18;;;;;;;;;6.00;2.67;;;;;;;;5035041;28;45546;-70
2023/12/08 13:09:44;;;;;;;;;5.67;2.67;;;;;;;;5030881;28;45489;-69
2023/12/08 13:12:09;;;;;;;;;11.67;4.33;;;;;;;;5033111;28;46818;-68
2023/12/08 13:14:35;;;;;;;;;8.33;3.00;;;;;;;;5026901;28;45515;-69
2023/12/08 13:17:00;;;;;;;;;6.33;3.00;;;;;;;;5035411;28;45420;-68
2023/12/08 13:19:25;;;;;;;;;9.33;2.00;;;;;;;;5035865;28;45278;-69
2023/12/08 13:21:50;;;;;;;;;4.33;3.00;;;;;;;;5034444;28;46002;-71
2023/12/08 13:24:16;;;;;;;;;4.00;4.00;;;;;;;;5036348;28;45435;-69
2023/12/08 13:26:41;;;;;;;;;10.67;2.33;;;;;;;;5027261;28;45597;-69
2023/12/08 13:29:06;;;;;;;;;4.67;3.67;;;;;;;;5030603;28;45815;-71
2023/12/08 13:31:31;;;;;;;;;10.00;5.00;;;;;;;;5032529;28;45986;-68
2023/12/08 13:33:56;;;;;;;;;6.67;5.00;;;;;;;;5025658;28;45475;-68
2023/12/08 13:36:22;;;;;;;;;7.00;2.00;;;;;;;;5033520;28;45505;-69
2023/12/08 13:38:48;;;;;;;;;3.33;1.33;;;;;;;;5026833;28;45831;-68
2023/12/08 13:41:14;;;;;;;;;12.33;3.00;;;;;;;;5027811;28;46259;-68
2023/12/08 13:43:39;;;;;;;;;5.00;3.00;;;;;;;;5037502;28;45507;-70
2023/12/08 13:46:04;;;;;;;;;4.33;3.33;;;;;;;;5033189;28;45685;-70
2023/12/08 13:48:30;;;;;;;;;7.00;4.67;;;;;;;;5036555;28;45512;-68
2023/12/08 13:50:55;;;;;;;;;6.67;2.67;;;;;;;;5026866;28;45644;-69
2023/12/08 13:53:20;;;;;;;;;10.00;4.67;;;;;;;;5034298;28;45642;-70
2023/12/08 13:55:45;;;;;;;;;7.00;3.00;;;;;;;;5023787;28;45364;-69
2023/12/08 13:58:10;;;;;;;;;8.33;3.00;;;;;;;;5031123;28;45527;-69
2023/12/08 14:00:35;;;;;;;;;6.00;4.00;;;;;;;;5027177;28;47712;-69
2023/12/08 14:03:01;;;;;;;;;3.00;3.00;;;;;;;;5031197;28;45512;-69
2023/12/08 14:05:26;;;;;;;;;9.00;2.00;;;;;;;;5033216;28;45515;-69
2023/12/08 14:07:52;;;;;;;;;9.67;4.00;;;;;;;;5031634;28;45517;-68
2023/12/08 14:10:17;;;;;;;;;4.00;2.00;;;;;;;;5031285;28;45851;-68
2023/12/08 14:12:44;;;;;;;;;7.33;4.00;;;;;;;;5035779;28;45538;-69
2023/12/08 14:15:09;;;;;;;;;6.00;4.00;;;;;;;;5027890;28;45395;-71
2023/12/08 14:17:35;;;;;;;;;13.00;4.00;;;;;;;;5029353;28;45480;-71
2023/12/08 14:20:00;;;;;;;;;8.33;4.00;;;;;;;;5029564;28;46633;-69
2023/12/08 14:22:26;;;;;;;;;11.00;5.00;;;;;;;;5031826;28;45566;-69
2023/12/08 14:24:51;;;;;;;;;4.00;2.67;;;;;;;;5023498;28;45444;-69
2023/12/08 14:27:17;;;;;;;;;5.33;3.67;;;;;;;;5031839;28;45563;-68
2023/12/08 14:29:42;;;;;;;;;4.00;2.33;;;;;;;;5013814;28;46638;-69